sensor_id;sensor_type;location;lat;lon;timestamp;temperature;humidity
23156;DHT22;11746;50.876;4.246;2023-04-30T00:02:19;10.40;99.90
23156;DHT22;11746;50.876;4.246;2023-04-30T00:04:45;10.50;99.90
23156;DHT22;11746;50.876;4.246;2023-04-30T00:07:11;10.40;99.90
23156;DHT22;11746;50.876;4.246;2023-04-30T00:09:37;10.40;99.90
23156;DHT22;11746;50.876;4.246;2023-04-30T00:12:03;10.40;99.90
23156;DHT22;11746;50.876;4.246;2023-04-30T00:14:29;10.50;99.90
23156;DHT22;11746;50.876;4.246;2023-04-30T00:16:55;10.60;99.90
23156;DHT22;11746;50.876;4.246;2023-04-30T00:19:21;10.60;99.90
23156;DHT22;11746;50.876;4.246;2023-04-30T00:21:46;10.50;99.90
23156;DHT22;11746;50.876;4.246;2023-04-30T00:24:12;10.40;99.90
23156;DHT22;11746;50.876;4.246;2023-04-30T00:26:38;10.40;99.90
23156;DHT22;11746;50.876;4.246;2023-04-30T00:29:04;10.30;99.90
23156;DHT22;11746;50.876;4.246;2023-04-30T00:31:33;10.40;99.90
23156;DHT22;11746;50.876;4.246;2023-04-30T00:33:59;10.40;99.90
23156;DHT22;11746;50.876;4.246;2023-04-30T00:36:25;10.40;99.90
23156;DHT22;11746;50.876;4.246;2023-04-30T00:38:51;10.50;99.90
23156;DHT22;11746;50.876;4.246;2023-04-30T00:41:18;10.40;99.90
23156;DHT22;11746;50.876;4.246;2023-04-30T00:43:45;10.40;99.90
23156;DHT22;11746;50.876;4.246;2023-04-30T00:46:11;10.50;99.90
23156;DHT22;11746;50.876;4.246;2023-04-30T00:48:37;10.50;99.90
23156;DHT22;11746;50.876;4.246;2023-04-30T00:51:04;10.50;99.90
23156;DHT22;11746;50.876;4.246;2023-04-30T00:53:30;10.50;99.90
23156;DHT22;11746;50.876;4.246;2023-04-30T00:55:57;10.40;99.90
23156;DHT22;11746;50.876;4.246;2023-04-30T00:58:23;10.40;99.90
23156;DHT22;11746;50.876;4.246;2023-04-30T01:00:49;10.40;99.90
23156;DHT22;11746;50.876;4.246;2023-04-30T01:03:15;10.40;99.90
23156;DHT22;11746;50.876;4.246;2023-04-30T01:05:41;10.40;99.90
23156;DHT22;11746;50.876;4.246;2023-04-30T01:08:08;10.40;99.90
23156;DHT22;11746;50.876;4.246;2023-04-30T01:10:51;10.50;99.90
23156;DHT22;11746;50.876;4.246;2023-04-30T01:13:49;10.50;99.90
23156;DHT22;11746;50.876;4.246;2023-04-30T01:16:18;10.40;99.90
23156;DHT22;11746;50.876;4.246;2023-04-30T01:18:57;10.30;99.90
23156;DHT22;11746;50.876;4.246;2023-04-30T01:21:24;10.20;99.90
23156;DHT22;11746;50.876;4.246;2023-04-30T01:26:58;10.20;99.90
23156;DHT22;11746;50.876;4.246;2023-04-30T01:29:26;10.10;99.90
23156;DHT22;11746;50.876;4.246;2023-04-30T01:31:52;10.00;99.90
23156;DHT22;11746;50.876;4.246;2023-04-30T01:34:18;10.00;99.90
23156;DHT22;11746;50.876;4.246;2023-04-30T01:42:20;10.10;99.90
23156;DHT22;11746;50.876;4.246;2023-04-30T01:45:12;10.20;99.90
23156;DHT22;11746;50.876;4.246;2023-04-30T01:48:07;10.30;99.90
23156;DHT22;11746;50.876;4.246;2023-04-30T01:50:47;10.20;99.90
23156;DHT22;11746;50.876;4.246;2023-04-30T01:53:20;10.20;99.90
23156;DHT22;11746;50.876;4.246;2023-04-30T01:56:15;10.20;99.90
23156;DHT22;11746;50.876;4.246;2023-04-30T01:58:37;10.30;99.90
23156;DHT22;11746;50.876;4.246;2023-04-30T02:01:04;10.20;99.90
23156;DHT22;11746;50.876;4.246;2023-04-30T02:03:32;10.10;99.90
23156;DHT22;11746;50.876;4.246;2023-04-30T02:05:58;10.10;99.90
23156;DHT22;11746;50.876;4.246;2023-04-30T02:08:24;9.90;99.90
23156;DHT22;11746;50.876;4.246;2023-04-30T02:10:50;10.00;99.90
23156;DHT22;11746;50.876;4.246;2023-04-30T02:13:16;9.90;99.90
23156;DHT22;11746;50.876;4.246;2023-04-30T02:15:42;10.00;99.90
23156;DHT22;11746;50.876;4.246;2023-04-30T02:18:07;10.00;99.90
23156;DHT22;11746;50.876;4.246;2023-04-30T02:20:33;10.00;99.90
23156;DHT22;11746;50.876;4.246;2023-04-30T02:22:59;10.00;99.90
23156;DHT22;11746;50.876;4.246;2023-04-30T02:25:25;9.90;99.90
23156;DHT22;11746;50.876;4.246;2023-04-30T02:27:51;9.90;99.90
23156;DHT22;11746;50.876;4.246;2023-04-30T02:30:17;10.00;99.90
23156;DHT22;11746;50.876;4.246;2023-04-30T02:32:45;9.90;99.90
23156;DHT22;11746;50.876;4.246;2023-04-30T02:35:11;9.70;99.90
23156;DHT22;11746;50.876;4.246;2023-04-30T02:37:37;9.70;99.90
23156;DHT22;11746;50.876;4.246;2023-04-30T02:40:03;9.70;99.90
23156;DHT22;11746;50.876;4.246;2023-04-30T02:42:29;9.90;99.90
23156;DHT22;11746;50.876;4.246;2023-04-30T02:44:55;9.80;99.90
23156;DHT22;11746;50.876;4.246;2023-04-30T02:47:21;9.70;99.90
23156;DHT22;11746;50.876;4.246;2023-04-30T02:49:47;9.60;99.90
23156;DHT22;11746;50.876;4.246;2023-04-30T02:52:13;9.50;99.90
23156;DHT22;11746;50.876;4.246;2023-04-30T02:54:39;9.50;99.90
23156;DHT22;11746;50.876;4.246;2023-04-30T02:57:05;9.50;99.90
23156;DHT22;11746;50.876;4.246;2023-04-30T02:59:31;9.50;99.90
23156;DHT22;11746;50.876;4.246;2023-04-30T03:01:57;9.40;99.90
23156;DHT22;11746;50.876;4.246;2023-04-30T03:04:23;9.30;99.90
23156;DHT22;11746;50.876;4.246;2023-04-30T03:06:49;9.40;99.90
23156;DHT22;11746;50.876;4.246;2023-04-30T03:09:15;9.40;99.90
23156;DHT22;11746;50.876;4.246;2023-04-30T03:11:41;9.40;99.90
23156;DHT22;11746;50.876;4.246;2023-04-30T03:14:07;9.40;99.90
23156;DHT22;11746;50.876;4.246;2023-04-30T03:16:33;9.40;99.90
23156;DHT22;11746;50.876;4.246;2023-04-30T03:18:59;9.30;99.90
23156;DHT22;11746;50.876;4.246;2023-04-30T03:21:25;9.30;99.90
23156;DHT22;11746;50.876;4.246;2023-04-30T03:23:51;9.40;99.90
23156;DHT22;11746;50.876;4.246;2023-04-30T03:26:16;9.40;99.90
23156;DHT22;11746;50.876;4.246;2023-04-30T03:28:42;9.30;99.90
23156;DHT22;11746;50.876;4.246;2023-04-30T03:31:08;9.30;99.90
23156;DHT22;11746;50.876;4.246;2023-04-30T03:33:34;9.20;99.90
23156;DHT22;11746;50.876;4.246;2023-04-30T03:36:00;9.20;99.90
23156;DHT22;11746;50.876;4.246;2023-04-30T03:38:26;9.10;99.90
23156;DHT22;11746;50.876;4.246;2023-04-30T03:40:52;9.00;99.90
23156;DHT22;11746;50.876;4.246;2023-04-30T03:43:18;9.00;99.90
23156;DHT22;11746;50.876;4.246;2023-04-30T03:45:44;9.00;99.90
23156;DHT22;11746;50.876;4.246;2023-04-30T03:48:10;9.10;99.90
23156;DHT22;11746;50.876;4.246;2023-04-30T03:50:36;9.10;99.90
23156;DHT22;11746;50.876;4.246;2023-04-30T03:53:01;9.20;99.90
23156;DHT22;11746;50.876;4.246;2023-04-30T03:55:27;9.20;99.90
23156;DHT22;11746;50.876;4.246;2023-04-30T03:57:53;9.00;99.90
23156;DHT22;11746;50.876;4.246;2023-04-30T04:00:19;9.00;99.90
23156;DHT22;11746;50.876;4.246;2023-04-30T04:02:45;9.00;99.90
23156;DHT22;11746;50.876;4.246;2023-04-30T04:05:11;9.00;99.90
23156;DHT22;11746;50.876;4.246;2023-04-30T04:07:37;9.20;99.90
23156;DHT22;11746;50.876;4.246;2023-04-30T04:10:03;9.20;99.90
23156;DHT22;11746;50.876;4.246;2023-04-30T04:12:29;9.10;99.90
23156;DHT22;11746;50.876;4.246;2023-04-30T04:14:55;9.10;99.90
23156;DHT22;11746;50.876;4.246;2023-04-30T04:17:21;9.00;99.90
23156;DHT22;11746;50.876;4.246;2023-04-30T04:19:47;8.90;99.90
23156;DHT22;11746;50.876;4.246;2023-04-30T04:22:13;8.90;99.90
23156;DHT22;11746;50.876;4.246;2023-04-30T04:24:39;8.90;99.90
23156;DHT22;11746;50.876;4.246;2023-04-30T04:27:04;8.70;99.90
23156;DHT22;11746;50.876;4.246;2023-04-30T04:29:30;8.80;99.90
23156;DHT22;11746;50.876;4.246;2023-04-30T04:31:57;8.70;99.90
23156;DHT22;11746;50.876;4.246;2023-04-30T04:34:24;8.70;99.90
23156;DHT22;11746;50.876;4.246;2023-04-30T04:36:51;8.70;99.90
23156;DHT22;11746;50.876;4.246;2023-04-30T04:39:17;8.80;99.90
23156;DHT22;11746;50.876;4.246;2023-04-30T04:41:43;8.80;99.90
23156;DHT22;11746;50.876;4.246;2023-04-30T04:44:09;8.80;99.90
23156;DHT22;11746;50.876;4.246;2023-04-30T04:46:36;8.90;99.90
23156;DHT22;11746;50.876;4.246;2023-04-30T04:49:06;9.00;99.90
23156;DHT22;11746;50.876;4.246;2023-04-30T04:51:32;9.00;99.90
23156;DHT22;11746;50.876;4.246;2023-04-30T04:53:58;9.00;99.90
23156;DHT22;11746;50.876;4.246;2023-04-30T04:56:24;9.00;99.90
23156;DHT22;11746;50.876;4.246;2023-04-30T04:58:50;9.00;99.90
23156;DHT22;11746;50.876;4.246;2023-04-30T05:01:16;9.10;99.90
23156;DHT22;11746;50.876;4.246;2023-04-30T05:03:42;9.10;99.90
23156;DHT22;11746;50.876;4.246;2023-04-30T05:06:08;9.20;99.90
23156;DHT22;11746;50.876;4.246;2023-04-30T05:08:34;9.20;99.90
23156;DHT22;11746;50.876;4.246;2023-04-30T05:11:00;9.20;99.90
23156;DHT22;11746;50.876;4.246;2023-04-30T05:13:26;9.00;99.90
23156;DHT22;11746;50.876;4.246;2023-04-30T05:15:55;9.10;99.90
23156;DHT22;11746;50.876;4.246;2023-04-30T05:18:21;9.00;99.90
23156;DHT22;11746;50.876;4.246;2023-04-30T05:20:47;9.10;99.90
23156;DHT22;11746;50.876;4.246;2023-04-30T05:23:13;9.20;99.90
23156;DHT22;11746;50.876;4.246;2023-04-30T05:25:39;9.30;99.90
23156;DHT22;11746;50.876;4.246;2023-04-30T05:28:05;9.30;99.90
23156;DHT22;11746;50.876;4.246;2023-04-30T05:30:31;9.40;99.90
23156;DHT22;11746;50.876;4.246;2023-04-30T05:32:57;9.40;99.90
23156;DHT22;11746;50.876;4.246;2023-04-30T05:35:23;9.50;99.90
23156;DHT22;11746;50.876;4.246;2023-04-30T05:37:49;9.60;99.90
23156;DHT22;11746;50.876;4.246;2023-04-30T05:40:15;9.50;99.90
23156;DHT22;11746;50.876;4.246;2023-04-30T05:42:41;9.60;99.90
23156;DHT22;11746;50.876;4.246;2023-04-30T05:45:12;9.60;99.90
23156;DHT22;11746;50.876;4.246;2023-04-30T05:47:39;9.70;99.90
23156;DHT22;11746;50.876;4.246;2023-04-30T05:50:06;9.80;99.90
23156;DHT22;11746;50.876;4.246;2023-04-30T05:52:32;9.90;99.90
23156;DHT22;11746;50.876;4.246;2023-04-30T05:54:58;9.90;99.90
23156;DHT22;11746;50.876;4.246;2023-04-30T05:57:24;10.10;99.90
23156;DHT22;11746;50.876;4.246;2023-04-30T05:59:50;10.40;99.90
23156;DHT22;11746;50.876;4.246;2023-04-30T06:02:16;10.20;99.90
23156;DHT22;11746;50.876;4.246;2023-04-30T06:04:42;10.30;99.90
23156;DHT22;11746;50.876;4.246;2023-04-30T06:07:08;10.30;99.90
23156;DHT22;11746;50.876;4.246;2023-04-30T06:09:34;10.40;99.90
23156;DHT22;11746;50.876;4.246;2023-04-30T06:12:00;10.60;99.90
23156;DHT22;11746;50.876;4.246;2023-04-30T06:14:27;10.60;99.90
23156;DHT22;11746;50.876;4.246;2023-04-30T06:16:53;10.60;99.90
23156;DHT22;11746;50.876;4.246;2023-04-30T06:19:19;10.70;99.90
23156;DHT22;11746;50.876;4.246;2023-04-30T06:21:45;10.70;99.90
23156;DHT22;11746;50.876;4.246;2023-04-30T06:24:11;10.60;99.90
23156;DHT22;11746;50.876;4.246;2023-04-30T06:26:37;11.00;99.90
23156;DHT22;11746;50.876;4.246;2023-04-30T06:29:03;11.20;99.90
23156;DHT22;11746;50.876;4.246;2023-04-30T06:31:29;11.30;99.90
23156;DHT22;11746;50.876;4.246;2023-04-30T06:33:55;11.30;99.90
23156;DHT22;11746;50.876;4.246;2023-04-30T06:36:21;11.20;99.90
23156;DHT22;11746;50.876;4.246;2023-04-30T06:38:47;11.20;99.90
23156;DHT22;11746;50.876;4.246;2023-04-30T06:41:13;11.30;99.90
23156;DHT22;11746;50.876;4.246;2023-04-30T06:43:41;11.30;99.90
23156;DHT22;11746;50.876;4.246;2023-04-30T06:46:07;11.20;99.90
23156;DHT22;11746;50.876;4.246;2023-04-30T06:48:33;11.30;99.90
23156;DHT22;11746;50.876;4.246;2023-04-30T06:50:59;11.40;99.90
23156;DHT22;11746;50.876;4.246;2023-04-30T06:53:25;11.60;99.90
23156;DHT22;11746;50.876;4.246;2023-04-30T06:55:51;11.70;99.90
23156;DHT22;11746;50.876;4.246;2023-04-30T06:58:17;12.00;99.90
23156;DHT22;11746;50.876;4.246;2023-04-30T07:00:44;12.00;99.90
23156;DHT22;11746;50.876;4.246;2023-04-30T07:03:11;12.00;99.90
23156;DHT22;11746;50.876;4.246;2023-04-30T07:05:38;12.10;99.90
23156;DHT22;11746;50.876;4.246;2023-04-30T07:08:05;12.10;99.90
23156;DHT22;11746;50.876;4.246;2023-04-30T07:10:31;12.20;99.90
23156;DHT22;11746;50.876;4.246;2023-04-30T07:12:57;12.20;99.90
23156;DHT22;11746;50.876;4.246;2023-04-30T07:15:23;12.30;99.90
23156;DHT22;11746;50.876;4.246;2023-04-30T07:17:49;12.50;99.90
23156;DHT22;11746;50.876;4.246;2023-04-30T07:20:16;12.50;99.90
23156;DHT22;11746;50.876;4.246;2023-04-30T07:22:42;12.50;99.90
23156;DHT22;11746;50.876;4.246;2023-04-30T07:25:11;12.50;99.90
23156;DHT22;11746;50.876;4.246;2023-04-30T07:27:37;12.60;99.90
23156;DHT22;11746;50.876;4.246;2023-04-30T07:30:04;12.70;99.90
23156;DHT22;11746;50.876;4.246;2023-04-30T07:32:30;12.90;99.90
23156;DHT22;11746;50.876;4.246;2023-04-30T07:34:56;13.10;99.90
23156;DHT22;11746;50.876;4.246;2023-04-30T07:37:22;13.40;99.90
23156;DHT22;11746;50.876;4.246;2023-04-30T07:39:48;13.50;99.90
23156;DHT22;11746;50.876;4.246;2023-04-30T07:42:14;13.50;99.90
23156;DHT22;11746;50.876;4.246;2023-04-30T07:44:40;13.50;99.90
23156;DHT22;11746;50.876;4.246;2023-04-30T07:47:06;13.40;99.90
23156;DHT22;11746;50.876;4.246;2023-04-30T07:49:32;13.60;99.90
23156;DHT22;11746;50.876;4.246;2023-04-30T07:51:58;13.70;99.90
23156;DHT22;11746;50.876;4.246;2023-04-30T07:54:26;13.60;99.90
23156;DHT22;11746;50.876;4.246;2023-04-30T07:56:52;13.50;99.90
23156;DHT22;11746;50.876;4.246;2023-04-30T07:59:18;13.60;99.90
23156;DHT22;11746;50.876;4.246;2023-04-30T08:01:46;13.80;99.90
23156;DHT22;11746;50.876;4.246;2023-04-30T08:04:12;13.80;99.90
23156;DHT22;11746;50.876;4.246;2023-04-30T08:06:37;14.00;99.90
23156;DHT22;11746;50.876;4.246;2023-04-30T08:09:03;14.20;99.90
23156;DHT22;11746;50.876;4.246;2023-04-30T08:11:29;14.40;99.90
23156;DHT22;11746;50.876;4.246;2023-04-30T08:13:55;14.50;99.90
23156;DHT22;11746;50.876;4.246;2023-04-30T08:16:21;14.50;99.90
23156;DHT22;11746;50.876;4.246;2023-04-30T08:18:47;14.60;99.90
23156;DHT22;11746;50.876;4.246;2023-04-30T08:21:15;14.70;99.90
23156;DHT22;11746;50.876;4.246;2023-04-30T08:23:42;14.80;99.90
23156;DHT22;11746;50.876;4.246;2023-04-30T08:26:08;14.80;99.90
23156;DHT22;11746;50.876;4.246;2023-04-30T08:28:34;14.90;99.90
23156;DHT22;11746;50.876;4.246;2023-04-30T08:31:00;15.00;99.90
23156;DHT22;11746;50.876;4.246;2023-04-30T08:33:26;15.10;99.90
23156;DHT22;11746;50.876;4.246;2023-04-30T08:35:53;15.30;99.90
23156;DHT22;11746;50.876;4.246;2023-04-30T08:38:18;15.50;99.90
23156;DHT22;11746;50.876;4.246;2023-04-30T08:40:51;15.50;99.90
23156;DHT22;11746;50.876;4.246;2023-04-30T08:43:18;15.50;99.90
23156;DHT22;11746;50.876;4.246;2023-04-30T08:45:44;15.40;99.90
23156;DHT22;11746;50.876;4.246;2023-04-30T08:48:11;15.60;99.90
23156;DHT22;11746;50.876;4.246;2023-04-30T08:50:40;15.70;99.90
23156;DHT22;11746;50.876;4.246;2023-04-30T08:53:07;15.80;99.90
23156;DHT22;11746;50.876;4.246;2023-04-30T08:55:35;15.90;99.90
23156;DHT22;11746;50.876;4.246;2023-04-30T08:58:02;16.10;99.90
23156;DHT22;11746;50.876;4.246;2023-04-30T09:00:31;16.00;99.90
23156;DHT22;11746;50.876;4.246;2023-04-30T09:02:57;16.00;99.90
23156;DHT22;11746;50.876;4.246;2023-04-30T09:05:25;16.00;99.90
23156;DHT22;11746;50.876;4.246;2023-04-30T09:07:51;16.10;99.90
23156;DHT22;11746;50.876;4.246;2023-04-30T09:10:18;16.20;99.90
23156;DHT22;11746;50.876;4.246;2023-04-30T09:13:08;16.20;99.90
23156;DHT22;11746;50.876;4.246;2023-04-30T09:15:35;16.20;99.90
23156;DHT22;11746;50.876;4.246;2023-04-30T09:18:15;16.30;99.90
23156;DHT22;11746;50.876;4.246;2023-04-30T09:21:01;16.40;99.90
23156;DHT22;11746;50.876;4.246;2023-04-30T09:23:28;16.60;99.90
23156;DHT22;11746;50.876;4.246;2023-04-30T09:25:55;16.70;99.90
23156;DHT22;11746;50.876;4.246;2023-04-30T09:28:22;16.70;99.90
23156;DHT22;11746;50.876;4.246;2023-04-30T09:30:48;16.80;99.90
23156;DHT22;11746;50.876;4.246;2023-04-30T09:33:15;16.80;99.90
23156;DHT22;11746;50.876;4.246;2023-04-30T09:35:41;16.90;99.90
23156;DHT22;11746;50.876;4.246;2023-04-30T09:38:30;17.20;99.90
23156;DHT22;11746;50.876;4.246;2023-04-30T09:41:00;17.40;99.90
23156;DHT22;11746;50.876;4.246;2023-04-30T09:43:27;17.30;99.90
23156;DHT22;11746;50.876;4.246;2023-04-30T09:45:53;17.30;99.90
23156;DHT22;11746;50.876;4.246;2023-04-30T09:48:23;17.20;99.90
23156;DHT22;11746;50.876;4.246;2023-04-30T09:50:49;17.30;99.90
23156;DHT22;11746;50.876;4.246;2023-04-30T09:53:16;17.40;99.90
23156;DHT22;11746;50.876;4.246;2023-04-30T09:55:48;17.70;99.90
23156;DHT22;11746;50.876;4.246;2023-04-30T09:58:16;17.60;99.90
23156;DHT22;11746;50.876;4.246;2023-04-30T10:00:45;17.60;99.90
23156;DHT22;11746;50.876;4.246;2023-04-30T10:03:14;17.70;99.90
23156;DHT22;11746;50.876;4.246;2023-04-30T10:05:46;17.70;99.90
23156;DHT22;11746;50.876;4.246;2023-04-30T10:08:30;17.70;99.90
23156;DHT22;11746;50.876;4.246;2023-04-30T10:11:06;17.70;99.90
23156;DHT22;11746;50.876;4.246;2023-04-30T10:13:40;17.90;99.90
23156;DHT22;11746;50.876;4.246;2023-04-30T10:16:11;17.90;99.90
23156;DHT22;11746;50.876;4.246;2023-04-30T10:18:41;18.00;99.90
23156;DHT22;11746;50.876;4.246;2023-04-30T10:21:12;18.00;99.90
23156;DHT22;11746;50.876;4.246;2023-04-30T10:23:39;18.00;99.90
23156;DHT22;11746;50.876;4.246;2023-04-30T10:26:11;18.10;99.90
23156;DHT22;11746;50.876;4.246;2023-04-30T10:28:37;18.30;99.90
23156;DHT22;11746;50.876;4.246;2023-04-30T10:31:06;18.50;99.90
23156;DHT22;11746;50.876;4.246;2023-04-30T10:33:43;18.60;99.90
23156;DHT22;11746;50.876;4.246;2023-04-30T10:36:25;18.70;99.90
23156;DHT22;11746;50.876;4.246;2023-04-30T10:38:55;18.60;99.90
23156;DHT22;11746;50.876;4.246;2023-04-30T10:41:22;18.70;99.90
23156;DHT22;11746;50.876;4.246;2023-04-30T10:43:55;18.70;99.90
23156;DHT22;11746;50.876;4.246;2023-04-30T10:46:22;18.70;99.90
23156;DHT22;11746;50.876;4.246;2023-04-30T10:48:51;18.70;99.90
23156;DHT22;11746;50.876;4.246;2023-04-30T10:51:19;18.80;99.90
23156;DHT22;11746;50.876;4.246;2023-04-30T10:53:49;18.90;99.90
23156;DHT22;11746;50.876;4.246;2023-04-30T10:56:29;19.10;99.90
23156;DHT22;11746;50.876;4.246;2023-04-30T10:58:58;19.10;99.90
23156;DHT22;11746;50.876;4.246;2023-04-30T11:01:28;19.10;99.90
23156;DHT22;11746;50.876;4.246;2023-04-30T11:04:08;19.00;99.90
23156;DHT22;11746;50.876;4.246;2023-04-30T11:07:01;18.90;99.60
23156;DHT22;11746;50.876;4.246;2023-04-30T11:09:38;19.10;99.90
23156;DHT22;11746;50.876;4.246;2023-04-30T11:12:25;19.30;99.40
23156;DHT22;11746;50.876;4.246;2023-04-30T11:15:05;19.40;98.30
23156;DHT22;11746;50.876;4.246;2023-04-30T11:17:32;19.60;99.90
23156;DHT22;11746;50.876;4.246;2023-04-30T11:20:01;19.60;99.50
23156;DHT22;11746;50.876;4.246;2023-04-30T11:22:28;19.90;99.10
23156;DHT22;11746;50.876;4.246;2023-04-30T11:25:14;20.10;95.90
23156;DHT22;11746;50.876;4.246;2023-04-30T11:27:44;20.10;96.30
23156;DHT22;11746;50.876;4.246;2023-04-30T11:30:14;20.10;95.00
23156;DHT22;11746;50.876;4.246;2023-04-30T11:32:43;20.20;96.80
23156;DHT22;11746;50.876;4.246;2023-04-30T11:35:10;20.40;94.90
23156;DHT22;11746;50.876;4.246;2023-04-30T11:37:42;20.50;94.00
23156;DHT22;11746;50.876;4.246;2023-04-30T11:40:13;20.70;94.40
23156;DHT22;11746;50.876;4.246;2023-04-30T11:42:41;20.60;93.60
23156;DHT22;11746;50.876;4.246;2023-04-30T11:45:10;20.70;95.10
23156;DHT22;11746;50.876;4.246;2023-04-30T11:47:44;21.00;93.20
23156;DHT22;11746;50.876;4.246;2023-04-30T11:50:12;21.00;93.50
23156;DHT22;11746;50.876;4.246;2023-04-30T11:52:42;20.50;91.00
23156;DHT22;11746;50.876;4.246;2023-04-30T11:55:18;20.30;91.60
23156;DHT22;11746;50.876;4.246;2023-04-30T11:57:46;20.60;92.80
23156;DHT22;11746;50.876;4.246;2023-04-30T12:00:21;20.80;91.30
23156;DHT22;11746;50.876;4.246;2023-04-30T12:02:50;20.70;89.90
23156;DHT22;11746;50.876;4.246;2023-04-30T12:05:21;20.50;88.60
23156;DHT22;11746;50.876;4.246;2023-04-30T12:07:48;20.40;91.20
23156;DHT22;11746;50.876;4.246;2023-04-30T12:10:14;20.90;90.90
23156;DHT22;11746;50.876;4.246;2023-04-30T12:12:42;21.10;89.00
23156;DHT22;11746;50.876;4.246;2023-04-30T12:15:16;21.10;87.30
23156;DHT22;11746;50.876;4.246;2023-04-30T12:17:43;21.30;86.90
23156;DHT22;11746;50.876;4.246;2023-04-30T12:20:11;21.40;85.80
23156;DHT22;11746;50.876;4.246;2023-04-30T12:22:37;21.20;88.60
23156;DHT22;11746;50.876;4.246;2023-04-30T12:25:10;21.40;86.60
23156;DHT22;11746;50.876;4.246;2023-04-30T12:27:39;21.40;84.20
23156;DHT22;11746;50.876;4.246;2023-04-30T12:30:07;21.40;87.50
23156;DHT22;11746;50.876;4.246;2023-04-30T12:32:43;21.30;83.00
23156;DHT22;11746;50.876;4.246;2023-04-30T12:35:18;21.20;84.80
23156;DHT22;11746;50.876;4.246;2023-04-30T12:37:48;21.40;87.50
23156;DHT22;11746;50.876;4.246;2023-04-30T12:40:18;21.80;84.70
23156;DHT22;11746;50.876;4.246;2023-04-30T12:42:45;21.90;82.10
23156;DHT22;11746;50.876;4.246;2023-04-30T12:45:43;21.90;79.90
23156;DHT22;11746;50.876;4.246;2023-04-30T12:48:10;22.00;81.60
23156;DHT22;11746;50.876;4.246;2023-04-30T12:50:37;21.80;79.00
23156;DHT22;11746;50.876;4.246;2023-04-30T12:53:04;22.10;79.20
23156;DHT22;11746;50.876;4.246;2023-04-30T12:55:30;22.00;78.10
23156;DHT22;11746;50.876;4.246;2023-04-30T12:58:06;22.10;79.00
23156;DHT22;11746;50.876;4.246;2023-04-30T13:00:43;22.30;80.20
23156;DHT22;11746;50.876;4.246;2023-04-30T13:03:09;22.20;81.50
23156;DHT22;11746;50.876;4.246;2023-04-30T13:05:35;22.40;83.60
23156;DHT22;11746;50.876;4.246;2023-04-30T13:08:02;22.30;80.40
23156;DHT22;11746;50.876;4.246;2023-04-30T13:10:31;22.30;79.70
23156;DHT22;11746;50.876;4.246;2023-04-30T13:12:57;22.40;78.40
23156;DHT22;11746;50.876;4.246;2023-04-30T13:15:24;22.40;76.30
23156;DHT22;11746;50.876;4.246;2023-04-30T13:17:51;22.60;77.50
23156;DHT22;11746;50.876;4.246;2023-04-30T13:20:16;22.60;75.70
23156;DHT22;11746;50.876;4.246;2023-04-30T13:22:45;22.80;75.80
23156;DHT22;11746;50.876;4.246;2023-04-30T13:25:11;23.00;77.00
23156;DHT22;11746;50.876;4.246;2023-04-30T13:27:37;23.10;74.50
23156;DHT22;11746;50.876;4.246;2023-04-30T13:30:03;23.00;76.20
23156;DHT22;11746;50.876;4.246;2023-04-30T13:32:29;23.00;74.40
23156;DHT22;11746;50.876;4.246;2023-04-30T13:34:55;22.70;72.10
23156;DHT22;11746;50.876;4.246;2023-04-30T13:37:23;23.00;74.30
23156;DHT22;11746;50.876;4.246;2023-04-30T13:39:49;23.40;72.60
23156;DHT22;11746;50.876;4.246;2023-04-30T13:42:14;23.80;73.70
23156;DHT22;11746;50.876;4.246;2023-04-30T13:44:40;23.70;71.80
23156;DHT22;11746;50.876;4.246;2023-04-30T13:47:06;23.50;71.90
23156;DHT22;11746;50.876;4.246;2023-04-30T13:49:34;23.60;70.00
23156;DHT22;11746;50.876;4.246;2023-04-30T13:52:02;23.80;72.80
23156;DHT22;11746;50.876;4.246;2023-04-30T13:54:28;23.80;71.30
23156;DHT22;11746;50.876;4.246;2023-04-30T13:56:54;23.50;70.00
23156;DHT22;11746;50.876;4.246;2023-04-30T13:59:20;23.10;70.60
23156;DHT22;11746;50.876;4.246;2023-04-30T14:01:46;23.40;71.10
23156;DHT22;11746;50.876;4.246;2023-04-30T14:04:12;23.50;70.50
23156;DHT22;11746;50.876;4.246;2023-04-30T14:06:38;23.50;69.00
23156;DHT22;11746;50.876;4.246;2023-04-30T14:09:05;23.60;68.20
23156;DHT22;11746;50.876;4.246;2023-04-30T14:11:31;23.40;67.80
23156;DHT22;11746;50.876;4.246;2023-04-30T14:13:57;24.00;69.00
23156;DHT22;11746;50.876;4.246;2023-04-30T14:16:24;24.60;65.60
23156;DHT22;11746;50.876;4.246;2023-04-30T14:18:50;24.50;64.60
23156;DHT22;11746;50.876;4.246;2023-04-30T14:21:16;24.90;61.80
23156;DHT22;11746;50.876;4.246;2023-04-30T14:23:42;25.10;62.00
23156;DHT22;11746;50.876;4.246;2023-04-30T14:26:11;25.40;61.70
23156;DHT22;11746;50.876;4.246;2023-04-30T14:28:37;25.40;63.20
23156;DHT22;11746;50.876;4.246;2023-04-30T14:31:03;25.70;63.70
23156;DHT22;11746;50.876;4.246;2023-04-30T14:33:30;25.40;61.40
23156;DHT22;11746;50.876;4.246;2023-04-30T14:36:01;25.00;60.00
23156;DHT22;11746;50.876;4.246;2023-04-30T14:38:27;24.80;61.10
23156;DHT22;11746;50.876;4.246;2023-04-30T14:40:53;24.70;60.70
23156;DHT22;11746;50.876;4.246;2023-04-30T14:43:19;24.90;62.70
23156;DHT22;11746;50.876;4.246;2023-04-30T14:45:45;25.40;60.50
23156;DHT22;11746;50.876;4.246;2023-04-30T14:48:11;25.80;59.60
23156;DHT22;11746;50.876;4.246;2023-04-30T14:50:37;25.60;59.00
23156;DHT22;11746;50.876;4.246;2023-04-30T14:53:04;26.00;58.40
23156;DHT22;11746;50.876;4.246;2023-04-30T14:55:31;25.60;59.90
23156;DHT22;11746;50.876;4.246;2023-04-30T14:57:58;25.30;58.60
23156;DHT22;11746;50.876;4.246;2023-04-30T15:00:24;25.00;59.80
23156;DHT22;11746;50.876;4.246;2023-04-30T15:02:50;24.60;59.60
23156;DHT22;11746;50.876;4.246;2023-04-30T15:05:16;24.50;60.70
23156;DHT22;11746;50.876;4.246;2023-04-30T15:07:42;24.50;60.00
23156;DHT22;11746;50.876;4.246;2023-04-30T15:10:08;24.40;60.00
23156;DHT22;11746;50.876;4.246;2023-04-30T15:12:34;24.40;59.50
23156;DHT22;11746;50.876;4.246;2023-04-30T15:15:01;24.20;60.30
23156;DHT22;11746;50.876;4.246;2023-04-30T15:17:29;24.40;60.90
23156;DHT22;11746;50.876;4.246;2023-04-30T15:19:56;25.20;60.30
23156;DHT22;11746;50.876;4.246;2023-04-30T15:22:25;25.90;58.00
23156;DHT22;11746;50.876;4.246;2023-04-30T15:24:51;25.70;57.20
23156;DHT22;11746;50.876;4.246;2023-04-30T15:27:17;26.30;58.90
23156;DHT22;11746;50.876;4.246;2023-04-30T15:29:43;27.00;58.40
23156;DHT22;11746;50.876;4.246;2023-04-30T15:32:11;27.10;55.60
23156;DHT22;11746;50.876;4.246;2023-04-30T15:34:38;26.50;56.60
23156;DHT22;11746;50.876;4.246;2023-04-30T15:37:04;25.70;57.30
23156;DHT22;11746;50.876;4.246;2023-04-30T15:39:30;25.00;59.00
23156;DHT22;11746;50.876;4.246;2023-04-30T15:41:56;24.50;58.60
23156;DHT22;11746;50.876;4.246;2023-04-30T15:44:22;24.40;60.10
23156;DHT22;11746;50.876;4.246;2023-04-30T15:46:48;24.50;58.90
23156;DHT22;11746;50.876;4.246;2023-04-30T15:49:16;24.40;58.90